| time (UTC) | temp C | wind direction | speed KPH | gust KPH | rain 1hr cm | rain 24hr cm | rain mn cm | humidity % | barometer mb |
| 20260905171824 | 17 | 247 | 1.6 | 1.6 | 0.00 | 0.00 | 0.00 | 58 | 1014.7 |
| 20260905170823 | 17 | 347 | 0.0 | 0.0 | 0.00 | 0.00 | 0.00 | 58 | 1014.5 |
| 20260905165824 | 17 | 343 | 0.0 | 0.0 | 0.00 | 0.00 | 0.00 | 57 | 1014.3 |
| 20260905164811 | 17 | 66 | 0.0 | 0.0 | 0.00 | 0.00 | 0.00 | 57 | 1014.1 |
| 20260905163811 | 17 | 322 | 1.6 | 1.6 | 0.00 | 0.00 | 0.00 | 59 | 1014.2 |
| 20260905162759 | 17 | 186 | 0.0 | 0.0 | 0.00 | 0.00 | 0.00 | 56 | 1014.1 |
| 20260905161746 | 17 | 223 | 1.6 | 1.6 | 0.00 | 0.00 | 0.00 | 54 | 1014.1 |
| 20260905160746 | 18 | 192 | 1.6 | 1.6 | 0.00 | 0.00 | 0.00 | 53 | 1014.0 |
| 20260905155734 | 18 | 0 | 3.2 | 3.2 | 0.00 | 0.00 | 0.00 | 52 | 1013.9 |
| 20260905154734 | 18 | 282 | 1.6 | 1.6 | 0.00 | 0.00 | 0.00 | 51 | 1013.9 |
| 20260905153721 | 19 | 60 | 3.2 | 3.2 | 0.00 | 0.00 | 0.00 | 50 | 1013.9 |
| 20260905152721 | 19 | 281 | 1.6 | 1.6 | 0.00 | 0.00 | 0.00 | 50 | 1013.8 |
| 20260905151720 | 20 | 294 | 3.2 | 3.2 | 0.00 | 0.00 | 0.00 | 48 | 1013.7 |
| 20260905150708 | 20 | 269 | 4.8 | 4.8 | 0.00 | 0.00 | 0.00 | 50 | 1013.7 |
| 20260905145655 | 20 | 336 | 0.0 | 0.0 | 0.00 | 0.00 | 0.00 | 49 | 1013.6 |
| 20260905144656 | 20 | 198 | 6.4 | 6.4 | 0.00 | 0.00 | 0.00 | 48 | 1013.5 |
| 20260905143644 | 20 | 6 | 3.2 | 3.2 | 0.00 | 0.00 | 0.00 | 47 | 1013.5 |
| 20260905142643 | 20 | 49 | 4.8 | 4.8 | 0.00 | 0.00 | 0.00 | 50 | 1013.6 |
| 20260905141643 | 20 | 216 | 3.2 | 3.2 | 0.00 | 0.00 | 0.00 | 47 | 1013.7 |
| 20260905140630 | 20 | 268 | 8.0 | 8.0 | 0.00 | 0.00 | 0.00 | 50 | 1013.7 |
| 20260905135618 | 20 | 32 | 1.6 | 1.6 | 0.00 | 0.00 | 0.00 | 51 | 1013.6 |
| 20260905134606 | 19 | 324 | 3.2 | 3.2 | 0.00 | 0.00 | 0.00 | 52 | 1013.7 |
| 20260905133606 | 21 | 282 | 0.0 | 0.0 | 0.00 | 0.00 | 0.00 | 47 | 1013.6 |
| 20260905132606 | 20 | 48 | 1.6 | 1.6 | 0.00 | 0.00 | 0.00 | 52 | 1013.6 |
| 20260905131553 | 20 | 240 | 4.8 | 4.8 | 0.00 | 0.00 | 0.00 | 47 | 1013.7 |
| 20260905130553 | 19 | 348 | 6.4 | 6.4 | 0.00 | 0.00 | 0.00 | 50 | 1013.7 |
| 20260905125553 | 20 | 312 | 4.8 | 4.8 | 0.00 | 0.00 | 0.00 | 48 | 1013.8 |
| 20260905124541 | 20 | 282 | 3.2 | 3.2 | 0.00 | 0.00 | 0.00 | 48 | 1013.9 |
| 20260905123541 | 20 | 24 | 3.2 | 3.2 | 0.00 | 0.00 | 0.00 | 49 | 1013.9 |
| 20260905122531 | 18 | 235 | 1.6 | 1.6 | 0.00 | 0.00 | 0.00 | 53 | 1013.9 |
| 20260905121528 | 18 | 294 | 1.6 | 1.6 | 0.00 | 0.00 | 0.00 | 53 | 1013.9 |
| 20260905120528 | 18 | 114 | 3.2 | 3.2 | 0.00 | 0.00 | 0.00 | 55 | 1014.0 |
| 20260905115516 | 20 | 263 | 3.2 | 3.2 | 0.00 | 0.00 | 0.00 | 51 | 1013.9 |
| 20260905114516 | 18 | 257 | 3.2 | 3.2 | 0.00 | 0.00 | 0.00 | 55 | 1013.9 |
| 20260905113516 | 18 | 300 | 6.4 | 6.4 | 0.00 | 0.00 | 0.00 | 56 | 1013.8 |
| 20260905112515 | 18 | 186 | 1.6 | 1.6 | 0.00 | 0.00 | 0.00 | 58 | 1013.7 |
| 20260905111503 | 20 | 294 | 3.2 | 3.2 | 0.00 | 0.00 | 0.00 | 55 | 1013.6 |
| 20260905110450 | 18 | 6 | 3.2 | 3.2 | 0.00 | 0.00 | 0.00 | 60 | 1013.6 |
| 20260905105438 | 17 | 43 | 3.2 | 3.2 | 0.00 | 0.00 | 0.00 | 63 | 1013.7 |
| 20260905104425 | 18 | 251 | 3.2 | 3.2 | 0.00 | 0.00 | 0.00 | 60 | 1013.7 |
| 20260905103413 | 17 | 325 | 4.8 | 6.4 | 0.00 | 0.00 | 0.00 | 60 | 1013.6 |
| 20260905102413 | 18 | 276 | 3.2 | 3.2 | 0.00 | 0.00 | 0.00 | 61 | 1013.4 |
| 20260905101401 | 19 | 289 | 3.2 | 3.2 | 0.00 | 0.00 | 0.00 | 59 | 1013.3 |
| 20260905100401 | 17 | 284 | 6.4 | 8.0 | 0.00 | 0.00 | 0.00 | 61 | 1013.3 |
| 20260905095348 | 17 | 282 | 3.2 | 3.2 | 0.00 | 0.00 | 0.00 | 63 | 1013.2 |
| 20260905094348 | 19 | 270 | 1.6 | 1.6 | 0.00 | 0.00 | 0.00 | 62 | 1013.2 |
| 20260905093336 | 19 | 118 | 1.6 | 1.6 | 0.00 | 0.00 | 0.00 | 59 | 1013.1 |
| 20260905092336 | 18 | 234 | 4.8 | 4.8 | 0.00 | 0.00 | 0.00 | 62 | 1013.1 |
| 20260905091336 | 18 | 269 | 3.2 | 3.2 | 0.00 | 0.00 | 0.00 | 64 | 1013.1 |
| 20260905090323 | 18 | 284 | 6.4 | 6.4 | 0.00 | 0.00 | 0.00 | 63 | 1013.0 |
| 20260905085323 | 18 | 42 | 1.6 | 1.6 | 0.00 | 0.00 | 0.00 | 64 | 1013.1 |
| 20260905084323 | 18 | 76 | 3.2 | 3.2 | 0.00 | 0.00 | 0.00 | 64 | 1013.1 |
| 20260905083311 | 18 | 342 | 3.2 | 3.2 | 0.00 | 0.00 | 0.00 | 66 | 1012.9 |
| 20260905082259 | 17 | 312 | 3.2 | 3.2 | 0.00 | 0.00 | 0.00 | 68 | 1012.7 |
| 20260905081246 | 17 | 75 | 3.2 | 3.2 | 0.00 | 0.00 | 0.00 | 71 | 1012.7 |
| 20260905080233 | 17 | 324 | 4.8 | 4.8 | 0.00 | 0.00 | 0.00 | 70 | 1012.8 |
| 20260905075221 | 17 | 348 | 1.6 | 1.6 | 0.00 | 0.00 | 0.00 | 72 | 1012.7 |
| 20260905074221 | 17 | 288 | 0.0 | 0.0 | 0.00 | 0.00 | 0.00 | 75 | 1012.6 |
| 20260905073220 | 16 | 284 | 3.2 | 3.2 | 0.00 | 0.00 | 0.00 | 76 | 1012.5 |
| 20260905072208 | 16 | 351 | 4.8 | 4.8 | 0.00 | 0.00 | 0.00 | 78 | 1012.4 |
| 20260905071156 | 16 | 202 | 3.2 | 3.2 | 0.00 | 0.00 | 0.00 | 78 | 1012.3 |
| 20260905070155 | 16 | 292 | 6.4 | 6.4 | 0.00 | 0.00 | 0.00 | 81 | 1012.2 |
| 20260905065155 | 16 | 290 | 4.8 | 6.4 | 0.00 | 0.00 | 0.00 | 81 | 1012.2 |
| 20260905063016 | 15 | 73 | 0.0 | 0.0 | 0.00 | 0.15 | 0.00 | 86 | 1012.0 |
| 20260905062015 | 15 | 288 | 1.6 | 1.6 | 0.00 | 0.15 | 0.00 | 84 | 1011.8 |
| 20260905061003 | 15 | 348 | 0.0 | 0.0 | 0.00 | 0.15 | 0.00 | 88 | 1011.8 |
| 20260905060003 | 15 | 204 | 1.6 | 1.6 | 0.00 | 0.15 | 0.00 | 88 | 1011.5 |
| 20260905055003 | 15 | 354 | 3.2 | 3.2 | 0.00 | 0.15 | 0.00 | 88 | 1011.3 |
| 20260905053950 | 15 | 238 | 3.2 | 3.2 | 0.00 | 0.15 | 0.00 | 89 | 1011.3 |
| 20260905052938 | 15 | 198 | 1.6 | 1.6 | 0.00 | 0.15 | 0.00 | 89 | 1011.2 |
| 20260905051938 | 15 | 340 | 0.0 | 0.0 | 0.00 | 0.15 | 0.00 | 89 | 1011.2 |
| 20260905050938 | 15 | 4 | 4.8 | 4.8 | 0.00 | 0.15 | 0.00 | 89 | 1011.1 |
| 20260905045925 | 15 | 195 | 3.2 | 3.2 | 0.00 | 0.15 | 0.00 | 89 | 1010.8 |
| 20260905044926 | 15 | 318 | 1.6 | 1.6 | 0.00 | 0.15 | 0.00 | 90 | 1010.7 |
| 20260905043913 | 15 | 288 | 1.6 | 1.6 | 0.00 | 0.15 | 0.00 | 90 | 1010.8 |
| 20260905042913 | 15 | 294 | 1.6 | 1.6 | 0.00 | 0.15 | 0.00 | 90 | 1010.5 |
| 20260905041913 | 15 | 274 | 4.8 | 4.8 | 0.00 | 0.15 | 0.00 | 91 | 1010.3 |
| 20260905040901 | 15 | 300 | 4.8 | 4.8 | 0.00 | 0.15 | 0.00 | 92 | 1010.1 |
| 20260905035900 | 15 | 276 | 0.0 | 0.0 | 0.00 | 0.15 | 0.00 | 92 | 1010.0 |
| 20260905034848 | 15 | 210 | 3.2 | 3.2 | 0.00 | 0.15 | 0.00 | 91 | 1010.0 |
| 20260905033835 | 15 | 217 | 6.4 | 6.4 | 0.00 | 0.15 | 0.00 | 91 | 1009.9 |
| 20260905032823 | 15 | 191 | 3.2 | 3.2 | 0.00 | 0.15 | 0.00 | 91 | 1009.7 |
| 20260905031823 | 15 | 24 | 3.2 | 3.2 | 0.00 | 0.15 | 0.00 | 91 | 1009.5 |
| 20260905030811 | 15 | 145 | 3.2 | 3.2 | 0.00 | 0.15 | 0.00 | 91 | 1009.3 |
| 20260905025810 | 15 | 24 | 3.2 | 3.2 | 0.00 | 0.15 | 0.00 | 91 | 1009.4 |
| 20260905024811 | 15 | 244 | 3.2 | 3.2 | 0.00 | 0.15 | 0.00 | 90 | 1009.3 |
| 20260905023758 | 15 | 24 | 1.6 | 1.6 | 0.00 | 0.15 | 0.00 | 92 | 1009.1 |
| 20260905022757 | 15 | 172 | 1.6 | 1.6 | 0.00 | 0.15 | 0.00 | 92 | 1009.1 |
| 20260905021758 | 15 | 12 | 1.6 | 1.6 | 0.00 | 0.15 | 0.00 | 92 | 1009.4 |
| 20260905020745 | 15 | 162 | 1.6 | 1.6 | 0.00 | 0.15 | 0.00 | 92 | 1008.9 |
| 20260905015745 | 15 | 288 | 4.8 | 4.8 | 0.00 | 0.15 | 0.00 | 92 | 1008.8 |
| 20260905014745 | 15 | 24 | 0.0 | 0.0 | 0.00 | 0.15 | 0.00 | 93 | 1008.9 |
| 20260905013733 | 15 | 324 | 3.2 | 3.2 | 0.03 | 0.13 | 0.00 | 92 | 1008.8 |
| 20260905012732 | 15 | 228 | 0.0 | 0.0 | 0.03 | 0.13 | 0.00 | 93 | 1008.9 |
| 20260905011720 | 15 | 270 | 0.0 | 0.0 | 0.03 | 0.13 | 0.00 | 93 | 1008.4 |
| 20260905010720 | 15 | 44 | 1.6 | 1.6 | 0.03 | 0.13 | 0.00 | 93 | 1008.5 |
| 20260905005720 | 15 | 192 | 1.6 | 1.6 | 0.03 | 0.13 | 0.00 | 93 | 1008.8 |
| 20260905004709 | 15 | 248 | 6.4 | 6.4 | 0.03 | 0.13 | 0.00 | 93 | 1009.0 |
| 20260905003707 | 15 | 342 | 6.4 | 6.4 | 0.00 | 0.10 | 0.00 | 93 | 1008.6 |
| 20260905002656 | 15 | 174 | 3.2 | 3.2 | 0.00 | 0.10 | 0.00 | 92 | 1008.8 |
| 20260905001656 | 15 | 96 | 1.6 | 1.6 | 0.03 | 0.10 | 0.00 | 92 | 1008.5 |
| 20260905000642 | 15 | 228 | 4.8 | 4.8 | 0.05 | 0.10 | 0.00 | 92 | 1008.0 |
| 20260904235630 | 15 | 277 | 3.2 | 3.2 | 0.08 | 0.08 | 0.00 | 91 | 1007.7 |
| 20260904234630 | 15 | 198 | 6.4 | 6.4 | 0.08 | 0.08 | 0.00 | 91 | 1007.7 |
| 20260904233630 | 15 | 27 | 0.0 | 0.0 | 0.08 | 0.08 | 0.00 | 91 | 1007.4 |
| 20260904232630 | 15 | 114 | 1.6 | 1.6 | 0.05 | 0.05 | 0.00 | 90 | 1007.6 |
| 20260904231617 | 15 | 294 | 4.8 | 6.4 | 0.05 | 0.05 | 0.00 | 89 | 1007.6 |
| 20260904230605 | 16 | 282 | 1.6 | 1.6 | 0.00 | 0.00 | 0.00 | 87 | 1007.2 |
| 20260904225605 | 16 | 150 | 4.8 | 6.4 | 0.00 | 0.00 | 0.00 | 89 | 1007.0 |